sensor_id;sensor_type;location;lat;lon;timestamp;pressure;altitude;pressure_sealevel;temperature;humidity
12991;BME280;6560;57.692;11.958;2023-04-09T00:02:14;102761.63;;;16.97;51.59
12991;BME280;6560;57.692;11.958;2023-04-09T00:04:40;102757.25;;;17.19;52.49
12991;BME280;6560;57.692;11.958;2023-04-09T00:07:05;102568.91;;;15.67;52.83
12991;BME280;6560;57.692;11.958;2023-04-09T00:09:31;102710.03;;;16.43;53.54
12991;BME280;6560;57.692;11.958;2023-04-09T00:11:58;102634.34;;;16.07;54.20
12991;BME280;6560;57.692;11.958;2023-04-09T00:14:24;102556.81;;;15.61;54.54
12991;BME280;6560;57.692;11.958;2023-04-09T00:16:49;102739.81;;;16.59;54.78
12991;BME280;6560;57.692;11.958;2023-04-09T00:19:16;102627.44;;;16.31;54.38
12991;BME280;6560;57.692;11.958;2023-04-09T00:21:42;102650.53;;;16.10;54.74
12991;BME280;6560;57.692;11.958;2023-04-09T00:24:07;102693.72;;;16.92;53.99
12991;BME280;6560;57.692;11.958;2023-04-09T00:26:33;102724.06;;;16.72;54.64
12991;BME280;6560;57.692;11.958;2023-04-09T00:28:58;102705.78;;;16.45;55.20
12991;BME280;6560;57.692;11.958;2023-04-09T00:31:24;102737.81;;;16.56;55.26
12991;BME280;6560;57.692;11.958;2023-04-09T00:33:49;102646.72;;;16.07;55.65
12991;BME280;6560;57.692;11.958;2023-04-09T00:36:15;102658.94;;;16.05;55.36
12991;BME280;6560;57.692;11.958;2023-04-09T00:38:41;102724.09;;;16.62;55.47
12991;BME280;6560;57.692;11.958;2023-04-09T00:41:07;102631.31;;;15.92;55.72
12991;BME280;6560;57.692;11.958;2023-04-09T00:43:33;102716.81;;;16.49;55.34
12991;BME280;6560;57.692;11.958;2023-04-09T00:45:59;102669.22;;;15.90;55.95
12991;BME280;6560;57.692;11.958;2023-04-09T00:48:25;102731.16;;;16.19;56.14
12991;BME280;6560;57.692;11.958;2023-04-09T00:50:51;102663.38;;;15.84;56.12
12991;BME280;6560;57.692;11.958;2023-04-09T00:53:17;102654.19;;;15.90;55.75
12991;BME280;6560;57.692;11.958;2023-04-09T00:55:43;102745.22;;;16.28;55.73
12991;BME280;6560;57.692;11.958;2023-04-09T00:58:08;102613.41;;;15.80;55.69
12991;BME280;6560;57.692;11.958;2023-04-09T01:00:34;102686.41;;;16.25;55.77
12991;BME280;6560;57.692;11.958;2023-04-09T01:03:00;102719.03;;;16.55;54.83
12991;BME280;6560;57.692;11.958;2023-04-09T01:05:31;102726.09;;;16.54;54.84
12991;BME280;6560;57.692;11.958;2023-04-09T01:11:02;102700.38;;;16.33;54.76
12991;BME280;6560;57.692;11.958;2023-04-09T01:16:06;102699.69;;;15.93;55.42
12991;BME280;6560;57.692;11.958;2023-04-09T01:18:49;102726.97;;;16.01;54.93
12991;BME280;6560;57.692;11.958;2023-04-09T01:21:19;102621.38;;;15.70;54.73
12991;BME280;6560;57.692;11.958;2023-04-09T01:26:57;102690.94;;;15.74;55.68
12991;BME280;6560;57.692;11.958;2023-04-09T01:29:24;102720.59;;;16.31;54.51
12991;BME280;6560;57.692;11.958;2023-04-09T01:31:53;102607.59;;;15.23;55.05
12991;BME280;6560;57.692;11.958;2023-04-09T01:34:20;102610.28;;;15.53;54.54
12991;BME280;6560;57.692;11.958;2023-04-09T01:36:51;102716.94;;;16.19;53.72
12991;BME280;6560;57.692;11.958;2023-04-09T01:39:17;102693.25;;;16.02;53.83
12991;BME280;6560;57.692;11.958;2023-04-09T01:41:43;102710.63;;;15.86;54.49
12991;BME280;6560;57.692;11.958;2023-04-09T01:44:11;102723.13;;;15.87;54.90
12991;BME280;6560;57.692;11.958;2023-04-09T01:46:38;102723.38;;;15.70;55.55
12991;BME280;6560;57.692;11.958;2023-04-09T01:49:04;102732.53;;;15.33;56.35
12991;BME280;6560;57.692;11.958;2023-04-09T01:51:31;102705.34;;;14.97;56.64
12991;BME280;6560;57.692;11.958;2023-04-09T01:53:58;102728.94;;;15.33;56.31
12991;BME280;6560;57.692;11.958;2023-04-09T01:56:25;102730.69;;;15.42;55.66
12991;BME280;6560;57.692;11.958;2023-04-09T01:58:51;102594.16;;;14.71;56.11
12991;BME280;6560;57.692;11.958;2023-04-09T02:01:21;102718.31;;;15.93;55.30
12991;BME280;6560;57.692;11.958;2023-04-09T02:04:02;102666.06;;;15.13;55.35
12991;BME280;6560;57.692;11.958;2023-04-09T02:06:38;102715.25;;;15.28;56.68
12991;BME280;6560;57.692;11.958;2023-04-09T02:09:07;102735.69;;;15.19;56.32
12991;BME280;6560;57.692;11.958;2023-04-09T02:11:37;102680.38;;;14.85;58.11
12991;BME280;6560;57.692;11.958;2023-04-09T02:14:05;102675.91;;;14.55;57.81
12991;BME280;6560;57.692;11.958;2023-04-09T02:16:33;102728.16;;;14.85;58.00
12991;BME280;6560;57.692;11.958;2023-04-09T02:18:58;102643.81;;;14.33;58.89
12991;BME280;6560;57.692;11.958;2023-04-09T02:21:26;102614.91;;;14.07;59.33
12991;BME280;6560;57.692;11.958;2023-04-09T02:23:53;102712.16;;;14.64;60.29
12991;BME280;6560;57.692;11.958;2023-04-09T02:26:20;102720.19;;;14.46;60.77
12991;BME280;6560;57.692;11.958;2023-04-09T02:28:45;102723.66;;;14.26;62.01
12991;BME280;6560;57.692;11.958;2023-04-09T02:31:11;102681.56;;;14.39;61.65
12991;BME280;6560;57.692;11.958;2023-04-09T02:33:36;102702.09;;;14.70;60.84
12991;BME280;6560;57.692;11.958;2023-04-09T02:36:02;102720.09;;;14.93;60.86
12991;BME280;6560;57.692;11.958;2023-04-09T02:38:28;102723.59;;;15.12;59.03
12991;BME280;6560;57.692;11.958;2023-04-09T02:40:53;102729.06;;;15.14;59.97
12991;BME280;6560;57.692;11.958;2023-04-09T02:43:19;102690.53;;;15.29;58.95
12991;BME280;6560;57.692;11.958;2023-04-09T02:45:44;102669.34;;;14.70;60.25
12991;BME280;6560;57.692;11.958;2023-04-09T02:48:10;102680.75;;;14.79;60.92
12991;BME280;6560;57.692;11.958;2023-04-09T02:50:35;102655.63;;;14.55;60.22
12991;BME280;6560;57.692;11.958;2023-04-09T02:53:01;102616.00;;;14.09;60.70
12991;BME280;6560;57.692;11.958;2023-04-09T02:55:26;102718.00;;;14.60;61.51
12991;BME280;6560;57.692;11.958;2023-04-09T02:57:51;102712.03;;;14.34;61.98
12991;BME280;6560;57.692;11.958;2023-04-09T03:00:17;102694.22;;;13.67;63.58
12991;BME280;6560;57.692;11.958;2023-04-09T03:02:43;102530.19;;;12.76;63.71
12991;BME280;6560;57.692;11.958;2023-04-09T03:05:10;102733.56;;;14.18;62.97
12991;BME280;6560;57.692;11.958;2023-04-09T03:07:35;102498.38;;;12.38;63.87
12991;BME280;6560;57.692;11.958;2023-04-09T03:10:01;102674.50;;;13.92;63.24
12991;BME280;6560;57.692;11.958;2023-04-09T03:12:27;102726.34;;;14.07;62.59
12991;BME280;6560;57.692;11.958;2023-04-09T03:14:54;102677.84;;;13.89;62.71
12991;BME280;6560;57.692;11.958;2023-04-09T03:17:19;102518.31;;;13.00;62.75
12991;BME280;6560;57.692;11.958;2023-04-09T03:19:45;102718.09;;;14.04;62.71
12991;BME280;6560;57.692;11.958;2023-04-09T03:22:10;102647.44;;;13.67;62.92
12991;BME280;6560;57.692;11.958;2023-04-09T03:24:36;102690.53;;;14.12;63.15
12991;BME280;6560;57.692;11.958;2023-04-09T03:27:01;102570.22;;;13.25;62.64
12991;BME280;6560;57.692;11.958;2023-04-09T03:29:27;102692.59;;;13.96;63.31
12991;BME280;6560;57.692;11.958;2023-04-09T03:31:52;102688.66;;;14.11;62.80
12991;BME280;6560;57.692;11.958;2023-04-09T03:34:18;102618.22;;;14.05;62.08
12991;BME280;6560;57.692;11.958;2023-04-09T03:36:43;102615.47;;;14.13;61.83
12991;BME280;6560;57.692;11.958;2023-04-09T03:39:09;102714.47;;;14.70;61.88
12991;BME280;6560;57.692;11.958;2023-04-09T03:41:34;102695.59;;;14.77;60.17
12991;BME280;6560;57.692;11.958;2023-04-09T03:44:00;102680.25;;;14.44;61.08
12991;BME280;6560;57.692;11.958;2023-04-09T03:46:25;102678.03;;;14.59;59.61
12991;BME280;6560;57.692;11.958;2023-04-09T03:48:51;102682.81;;;14.53;60.16
12991;BME280;6560;57.692;11.958;2023-04-09T03:51:17;102658.16;;;14.35;60.41
12991;BME280;6560;57.692;11.958;2023-04-09T03:53:42;102575.53;;;14.12;59.96
12991;BME280;6560;57.692;11.958;2023-04-09T03:56:08;102666.22;;;14.55;59.63
12991;BME280;6560;57.692;11.958;2023-04-09T03:58:35;102695.47;;;14.36;61.38
12991;BME280;6560;57.692;11.958;2023-04-09T04:01:00;102698.97;;;14.46;60.88
12991;BME280;6560;57.692;11.958;2023-04-09T04:03:26;102702.63;;;14.56;59.96
12991;BME280;6560;57.692;11.958;2023-04-09T04:05:52;102606.41;;;14.01;59.95
12991;BME280;6560;57.692;11.958;2023-04-09T04:08:17;102690.75;;;14.43;60.76
12991;BME280;6560;57.692;11.958;2023-04-09T04:10:43;102693.53;;;14.25;61.16
12991;BME280;6560;57.692;11.958;2023-04-09T04:13:09;102544.13;;;13.30;61.25
12991;BME280;6560;57.692;11.958;2023-04-09T04:15:40;102677.50;;;14.05;61.44
12991;BME280;6560;57.692;11.958;2023-04-09T04:18:07;102600.91;;;13.42;62.77
12991;BME280;6560;57.692;11.958;2023-04-09T04:20:32;102708.06;;;14.10;61.93
12991;BME280;6560;57.692;11.958;2023-04-09T04:22:58;102681.59;;;14.02;61.67
12991;BME280;6560;57.692;11.958;2023-04-09T04:25:24;102690.34;;;14.01;61.83
12991;BME280;6560;57.692;11.958;2023-04-09T04:27:49;102704.75;;;14.13;62.67
12991;BME280;6560;57.692;11.958;2023-04-09T04:30:15;102685.53;;;13.40;65.13
12991;BME280;6560;57.692;11.958;2023-04-09T04:32:40;102715.44;;;13.67;64.43
12991;BME280;6560;57.692;11.958;2023-04-09T04:35:06;102725.63;;;13.81;64.23
12991;BME280;6560;57.692;11.958;2023-04-09T04:37:32;102641.75;;;13.44;64.19
12991;BME280;6560;57.692;11.958;2023-04-09T04:39:59;102658.41;;;13.62;63.34
12991;BME280;6560;57.692;11.958;2023-04-09T04:42:25;102721.03;;;13.70;64.91
12991;BME280;6560;57.692;11.958;2023-04-09T04:44:50;102694.19;;;13.56;64.99
12991;BME280;6560;57.692;11.958;2023-04-09T04:47:16;102705.28;;;13.71;64.92
12991;BME280;6560;57.692;11.958;2023-04-09T04:49:41;102692.25;;;13.64;64.30
12991;BME280;6560;57.692;11.958;2023-04-09T04:52:07;102688.34;;;13.61;64.38
12991;BME280;6560;57.692;11.958;2023-04-09T04:54:32;102670.75;;;13.42;64.51
12991;BME280;6560;57.692;11.958;2023-04-09T04:56:58;102675.44;;;13.18;66.70
12991;BME280;6560;57.692;11.958;2023-04-09T04:59:24;102715.22;;;13.74;65.17
12991;BME280;6560;57.692;11.958;2023-04-09T05:01:49;102723.19;;;13.74;65.26
12991;BME280;6560;57.692;11.958;2023-04-09T05:04:15;102724.78;;;13.72;64.75
12991;BME280;6560;57.692;11.958;2023-04-09T05:06:40;102625.63;;;13.32;64.58
12991;BME280;6560;57.692;11.958;2023-04-09T05:09:06;102605.91;;;13.20;64.60
12991;BME280;6560;57.692;11.958;2023-04-09T05:11:31;102585.28;;;13.26;65.12
12991;BME280;6560;57.692;11.958;2023-04-09T05:13:56;102637.28;;;13.53;64.89
12991;BME280;6560;57.692;11.958;2023-04-09T05:16:28;102728.91;;;14.16;64.12
12991;BME280;6560;57.692;11.958;2023-04-09T05:18:54;102705.91;;;14.06;64.43
12991;BME280;6560;57.692;11.958;2023-04-09T05:21:20;102687.66;;;13.90;65.08
12991;BME280;6560;57.692;11.958;2023-04-09T05:23:45;102585.28;;;13.92;64.69
12991;BME280;6560;57.692;11.958;2023-04-09T05:26:11;102733.56;;;14.66;63.54
12991;BME280;6560;57.692;11.958;2023-04-09T05:28:37;102697.13;;;14.26;63.89
12991;BME280;6560;57.692;11.958;2023-04-09T05:31:02;102711.38;;;14.36;62.48
12991;BME280;6560;57.692;11.958;2023-04-09T05:33:28;102721.91;;;14.45;62.37
12991;BME280;6560;57.692;11.958;2023-04-09T05:35:53;102601.09;;;14.01;62.70
12991;BME280;6560;57.692;11.958;2023-04-09T05:38:19;102538.19;;;13.32;61.38
12991;BME280;6560;57.692;11.958;2023-04-09T05:40:44;102721.09;;;15.24;60.76
12991;BME280;6560;57.692;11.958;2023-04-09T05:43:10;102741.97;;;16.11;59.46
12991;BME280;6560;57.692;11.958;2023-04-09T05:45:36;102676.00;;;15.97;58.52
12991;BME280;6560;57.692;11.958;2023-04-09T05:48:02;102677.34;;;16.55;57.81
12991;BME280;6560;57.692;11.958;2023-04-09T05:50:27;102715.88;;;17.24;56.28
12991;BME280;6560;57.692;11.958;2023-04-09T05:52:53;102597.28;;;17.19;53.84
12991;BME280;6560;57.692;11.958;2023-04-09T05:55:18;102697.44;;;18.29;54.49
12991;BME280;6560;57.692;11.958;2023-04-09T05:57:44;102711.78;;;19.14;53.68
12991;BME280;6560;57.692;11.958;2023-04-09T06:00:10;102708.34;;;19.28;52.16
12991;BME280;6560;57.692;11.958;2023-04-09T06:02:36;102563.00;;;18.90;50.00
12991;BME280;6560;57.692;11.958;2023-04-09T06:05:01;102717.00;;;19.13;49.99
12991;BME280;6560;57.692;11.958;2023-04-09T06:07:27;102660.38;;;18.33;50.35
12991;BME280;6560;57.692;11.958;2023-04-09T06:09:54;102706.59;;;18.21;49.91
12991;BME280;6560;57.692;11.958;2023-04-09T06:12:20;102715.16;;;18.40;50.37
12991;BME280;6560;57.692;11.958;2023-04-09T06:14:47;102622.13;;;18.46;49.26
12991;BME280;6560;57.692;11.958;2023-04-09T06:17:13;102722.25;;;18.40;51.34
12991;BME280;6560;57.692;11.958;2023-04-09T06:19:38;102720.75;;;18.43;49.91
12991;BME280;6560;57.692;11.958;2023-04-09T06:22:04;102696.59;;;19.01;49.90
12991;BME280;6560;57.692;11.958;2023-04-09T06:24:30;102715.00;;;20.36;51.60
12991;BME280;6560;57.692;11.958;2023-04-09T06:26:57;102721.34;;;20.90;50.17
12991;BME280;6560;57.692;11.958;2023-04-09T06:29:23;102667.38;;;20.05;47.28
12991;BME280;6560;57.692;11.958;2023-04-09T06:31:48;102648.22;;;19.99;47.25
12991;BME280;6560;57.692;11.958;2023-04-09T06:34:14;102696.16;;;20.60;47.27
12991;BME280;6560;57.692;11.958;2023-04-09T06:36:39;102640.97;;;20.92;48.38
12991;BME280;6560;57.692;11.958;2023-04-09T06:39:05;102697.50;;;21.80;48.03
12991;BME280;6560;57.692;11.958;2023-04-09T06:41:31;102634.25;;;20.98;46.57
12991;BME280;6560;57.692;11.958;2023-04-09T06:43:58;102696.44;;;22.06;46.61
12991;BME280;6560;57.692;11.958;2023-04-09T06:46:24;102707.00;;;22.63;45.90
12991;BME280;6560;57.692;11.958;2023-04-09T06:48:49;102687.78;;;22.41;43.54
12991;BME280;6560;57.692;11.958;2023-04-09T06:51:15;102713.25;;;23.09;45.40
12991;BME280;6560;57.692;11.958;2023-04-09T06:53:41;102714.25;;;23.11;46.06
12991;BME280;6560;57.692;11.958;2023-04-09T06:56:06;102716.16;;;23.95;44.42
12991;BME280;6560;57.692;11.958;2023-04-09T06:58:32;102678.50;;;23.96;43.30
12991;BME280;6560;57.692;11.958;2023-04-09T07:00:58;102716.72;;;24.05;43.86
12991;BME280;6560;57.692;11.958;2023-04-09T07:03:23;102701.97;;;24.50;43.42
12991;BME280;6560;57.692;11.958;2023-04-09T07:05:49;102712.94;;;24.53;41.39
12991;BME280;6560;57.692;11.958;2023-04-09T07:08:14;102582.63;;;23.66;41.70
12991;BME280;6560;57.692;11.958;2023-04-09T07:10:40;102719.22;;;24.36;39.92
12991;BME280;6560;57.692;11.958;2023-04-09T07:13:06;102714.91;;;24.57;41.49
12991;BME280;6560;57.692;11.958;2023-04-09T07:15:32;102636.59;;;24.03;40.69
12991;BME280;6560;57.692;11.958;2023-04-09T07:17:58;102722.03;;;23.54;39.07
12991;BME280;6560;57.692;11.958;2023-04-09T07:20:24;102705.31;;;23.93;40.90
12991;BME280;6560;57.692;11.958;2023-04-09T07:22:50;102701.88;;;24.13;39.15
12991;BME280;6560;57.692;11.958;2023-04-09T07:25:17;102628.63;;;24.77;37.72
12991;BME280;6560;57.692;11.958;2023-04-09T07:27:42;102692.03;;;25.81;39.43
12991;BME280;6560;57.692;11.958;2023-04-09T07:30:08;102662.28;;;25.81;36.75
12991;BME280;6560;57.692;11.958;2023-04-09T07:32:35;102707.47;;;26.46;37.01
12991;BME280;6560;57.692;11.958;2023-04-09T07:35:02;102644.34;;;25.43;36.67
12991;BME280;6560;57.692;11.958;2023-04-09T07:37:29;102645.78;;;25.35;34.38
12991;BME280;6560;57.692;11.958;2023-04-09T07:39:55;102631.78;;;26.04;36.74
12991;BME280;6560;57.692;11.958;2023-04-09T07:42:21;102699.44;;;26.90;35.15
12991;BME280;6560;57.692;11.958;2023-04-09T07:44:47;102619.44;;;24.91;33.35
12991;BME280;6560;57.692;11.958;2023-04-09T07:47:14;102692.00;;;25.60;33.33
12991;BME280;6560;57.692;11.958;2023-04-09T07:49:39;102576.09;;;25.47;34.36
12991;BME280;6560;57.692;11.958;2023-04-09T07:52:06;102697.00;;;25.91;34.58
12991;BME280;6560;57.692;11.958;2023-04-09T07:54:33;102708.66;;;25.90;33.66
12991;BME280;6560;57.692;11.958;2023-04-09T07:56:59;102696.38;;;26.19;33.79
12991;BME280;6560;57.692;11.958;2023-04-09T07:59:26;102609.47;;;25.28;32.09
12991;BME280;6560;57.692;11.958;2023-04-09T08:01:52;102709.66;;;24.78;29.75
12991;BME280;6560;57.692;11.958;2023-04-09T08:04:17;102695.81;;;26.05;30.71
12991;BME280;6560;57.692;11.958;2023-04-09T08:06:43;102587.34;;;25.77;30.98
12991;BME280;6560;57.692;11.958;2023-04-09T08:09:21;102704.00;;;25.28;28.76
12991;BME280;6560;57.692;11.958;2023-04-09T08:11:47;102552.94;;;24.00;30.04
12991;BME280;6560;57.692;11.958;2023-04-09T08:14:14;102691.84;;;25.97;29.23
12991;BME280;6560;57.692;11.958;2023-04-09T08:16:41;102690.94;;;25.18;28.61
12991;BME280;6560;57.692;11.958;2023-04-09T08:19:08;102694.34;;;25.33;29.84
12991;BME280;6560;57.692;11.958;2023-04-09T08:21:39;102699.19;;;24.67;29.70
12991;BME280;6560;57.692;11.958;2023-04-09T08:24:10;102671.94;;;25.36;30.47
12991;BME280;6560;57.692;11.958;2023-04-09T08:26:38;102670.81;;;25.90;29.45
12991;BME280;6560;57.692;11.958;2023-04-09T08:29:04;102624.53;;;25.42;30.05
12991;BME280;6560;57.692;11.958;2023-04-09T08:31:30;102691.34;;;26.27;29.96
12991;BME280;6560;57.692;11.958;2023-04-09T08:33:55;102672.38;;;25.07;29.74
12991;BME280;6560;57.692;11.958;2023-04-09T08:36:21;102642.41;;;24.10;30.73
12991;BME280;6560;57.692;11.958;2023-04-09T08:38:47;102629.97;;;23.96;29.93
12991;BME280;6560;57.692;11.958;2023-04-09T08:41:20;102677.66;;;23.97;30.00
12991;BME280;6560;57.692;11.958;2023-04-09T08:43:47;102684.91;;;23.98;30.38
12991;BME280;6560;57.692;11.958;2023-04-09T08:46:14;102684.50;;;23.91;31.54
12991;BME280;6560;57.692;11.958;2023-04-09T08:48:42;102688.59;;;24.34;30.85
12991;BME280;6560;57.692;11.958;2023-04-09T08:51:12;102693.88;;;24.15;31.26
12991;BME280;6560;57.692;11.958;2023-04-09T08:53:38;102675.88;;;23.80;31.17
12991;BME280;6560;57.692;11.958;2023-04-09T08:56:04;102677.09;;;23.20;30.78
12991;BME280;6560;57.692;11.958;2023-04-09T08:58:30;102681.25;;;23.80;32.15
12991;BME280;6560;57.692;11.958;2023-04-09T09:00:56;102608.16;;;24.08;31.37
12991;BME280;6560;57.692;11.958;2023-04-09T09:03:21;102630.22;;;24.18;31.42
12991;BME280;6560;57.692;11.958;2023-04-09T09:05:47;102639.38;;;23.87;31.50
12991;BME280;6560;57.692;11.958;2023-04-09T09:08:22;102671.06;;;24.44;31.18
12991;BME280;6560;57.692;11.958;2023-04-09T09:10:48;102674.81;;;24.28;32.30
12991;BME280;6560;57.692;11.958;2023-04-09T09:15:46;102670.16;;;23.74;32.34
12991;BME280;6560;57.692;11.958;2023-04-09T09:18:15;102612.97;;;23.79;32.77
12991;BME280;6560;57.692;11.958;2023-04-09T09:20:41;102553.00;;;23.83;32.52
12991;BME280;6560;57.692;11.958;2023-04-09T09:23:07;102625.25;;;24.08;32.16
12991;BME280;6560;57.692;11.958;2023-04-09T09:25:39;102659.78;;;22.68;32.76
12991;BME280;6560;57.692;11.958;2023-04-09T09:28:10;102654.72;;;23.54;32.63
12991;BME280;6560;57.692;11.958;2023-04-09T09:30:37;102656.25;;;23.49;33.42
12991;BME280;6560;57.692;11.958;2023-04-09T09:33:06;102634.72;;;23.66;33.34
12991;BME280;6560;57.692;11.958;2023-04-09T09:35:48;102662.38;;;23.62;33.04
12991;BME280;6560;57.692;11.958;2023-04-09T09:38:15;102657.50;;;24.42;33.46
12991;BME280;6560;57.692;11.958;2023-04-09T09:40:41;102647.59;;;24.78;32.20
12991;BME280;6560;57.692;11.958;2023-04-09T09:43:07;102527.38;;;23.74;32.73
12991;BME280;6560;57.692;11.958;2023-04-09T09:45:32;102663.31;;;24.32;32.04
12991;BME280;6560;57.692;11.958;2023-04-09T09:47:58;102587.06;;;23.48;32.99
12991;BME280;6560;57.692;11.958;2023-04-09T09:50:28;102551.81;;;22.93;33.61
12991;BME280;6560;57.692;11.958;2023-04-09T09:53:05;102622.34;;;23.20;33.69
12991;BME280;6560;57.692;11.958;2023-04-09T09:55:33;102643.69;;;23.33;34.38
12991;BME280;6560;57.692;11.958;2023-04-09T10:00:38;102616.97;;;22.87;34.47
12991;BME280;6560;57.692;11.958;2023-04-09T10:03:24;102633.53;;;22.95;34.19
12991;BME280;6560;57.692;11.958;2023-04-09T10:05:51;102590.44;;;22.62;34.43
12991;BME280;6560;57.692;11.958;2023-04-09T10:08:18;102636.38;;;22.98;34.74
12991;BME280;6560;57.692;11.958;2023-04-09T10:10:46;102638.91;;;22.48;34.50
12991;BME280;6560;57.692;11.958;2023-04-09T10:13:19;102646.81;;;22.92;34.66
12991;BME280;6560;57.692;11.958;2023-04-09T10:15:46;102570.19;;;21.91;34.66
12991;BME280;6560;57.692;11.958;2023-04-09T10:18:15;102650.56;;;21.88;34.58
12991;BME280;6560;57.692;11.958;2023-04-09T10:20:55;102640.00;;;22.20;33.63
12991;BME280;6560;57.692;11.958;2023-04-09T10:23:35;102612.59;;;21.67;34.31
12991;BME280;6560;57.692;11.958;2023-04-09T10:26:02;102531.75;;;19.79;35.81
12991;BME280;6560;57.692;11.958;2023-04-09T10:28:29;102603.50;;;21.21;35.79
12991;BME280;6560;57.692;11.958;2023-04-09T10:30:55;102652.03;;;21.39;36.48
12991;BME280;6560;57.692;11.958;2023-04-09T10:33:24;102638.34;;;21.64;36.24
12991;BME280;6560;57.692;11.958;2023-04-09T10:35:52;102631.28;;;22.24;35.83
12991;BME280;6560;57.692;11.958;2023-04-09T10:38:35;102607.06;;;22.55;35.05
12991;BME280;6560;57.692;11.958;2023-04-09T10:41:14;102618.72;;;22.40;34.22
12991;BME280;6560;57.692;11.958;2023-04-09T10:43:41;102602.72;;;22.26;34.93
12991;BME280;6560;57.692;11.958;2023-04-09T10:46:27;102625.69;;;22.52;34.75
12991;BME280;6560;57.692;11.958;2023-04-09T10:49:15;102622.69;;;22.15;34.33
12991;BME280;6560;57.692;11.958;2023-04-09T10:52:07;102604.97;;;22.97;34.15
12991;BME280;6560;57.692;11.958;2023-04-09T10:54:38;102614.31;;;23.37;34.33
12991;BME280;6560;57.692;11.958;2023-04-09T10:59:34;102611.94;;;23.10;32.95
12991;BME280;6560;57.692;11.958;2023-04-09T11:02:01;102611.22;;;23.30;33.10
12991;BME280;6560;57.692;11.958;2023-04-09T11:07:03;102620.59;;;22.88;33.10
12991;BME280;6560;57.692;11.958;2023-04-09T11:09:33;102447.84;;;22.12;34.47
12991;BME280;6560;57.692;11.958;2023-04-09T11:11:59;102614.97;;;22.83;33.67
12991;BME280;6560;57.692;11.958;2023-04-09T11:14:26;102542.97;;;22.95;33.28
12991;BME280;6560;57.692;11.958;2023-04-09T11:16:52;102551.47;;;22.71;32.60
12991;BME280;6560;57.692;11.958;2023-04-09T11:19:19;102513.44;;;22.32;33.56
12991;BME280;6560;57.692;11.958;2023-04-09T11:21:46;102624.22;;;22.26;32.50
12991;BME280;6560;57.692;11.958;2023-04-09T11:24:14;102624.28;;;22.43;33.44
12991;BME280;6560;57.692;11.958;2023-04-09T11:26:40;102587.97;;;22.82;33.41
12991;BME280;6560;57.692;11.958;2023-04-09T11:29:07;102522.66;;;22.05;32.70
12991;BME280;6560;57.692;11.958;2023-04-09T11:31:34;102614.25;;;22.40;31.95
12991;BME280;6560;57.692;11.958;2023-04-09T11:34:00;102607.38;;;22.45;34.45
12991;BME280;6560;57.692;11.958;2023-04-09T11:36:25;102599.16;;;22.42;35.66
12991;BME280;6560;57.692;11.958;2023-04-09T11:38:56;102607.91;;;21.78;37.45
12991;BME280;6560;57.692;11.958;2023-04-09T11:41:37;102521.50;;;21.70;37.49
12991;BME280;6560;57.692;11.958;2023-04-09T11:44:12;102575.50;;;22.20;36.16
12991;BME280;6560;57.692;11.958;2023-04-09T11:46:38;102599.88;;;22.40;36.41
12991;BME280;6560;57.692;11.958;2023-04-09T11:49:04;102520.75;;;21.73;36.85
12991;BME280;6560;57.692;11.958;2023-04-09T11:51:31;102592.78;;;22.25;36.30
12991;BME280;6560;57.692;11.958;2023-04-09T11:54:06;102594.72;;;22.59;36.21
12991;BME280;6560;57.692;11.958;2023-04-09T11:56:34;102585.38;;;22.36;35.87
12991;BME280;6560;57.692;11.958;2023-04-09T11:59:01;102574.44;;;22.33;36.40
12991;BME280;6560;57.692;11.958;2023-04-09T12:01:30;102498.22;;;21.85;35.93
12991;BME280;6560;57.692;11.958;2023-04-09T12:03:57;102580.00;;;22.36;35.99
12991;BME280;6560;57.692;11.958;2023-04-09T12:06:22;102579.16;;;22.53;36.01
12991;BME280;6560;57.692;11.958;2023-04-09T12:08:58;102591.00;;;22.41;35.66
12991;BME280;6560;57.692;11.958;2023-04-09T12:11:30;102586.66;;;22.59;36.40
12991;BME280;6560;57.692;11.958;2023-04-09T12:14:05;102585.88;;;22.76;35.57
12991;BME280;6560;57.692;11.958;2023-04-09T12:16:31;102462.75;;;22.38;35.90
12991;BME280;6560;57.692;11.958;2023-04-09T12:19:02;102507.59;;;22.55;35.33
12991;BME280;6560;57.692;11.958;2023-04-09T12:21:47;102586.28;;;22.84;35.40
12991;BME280;6560;57.692;11.958;2023-04-09T12:24:13;102580.03;;;22.85;35.67
12991;BME280;6560;57.692;11.958;2023-04-09T12:26:39;102580.97;;;22.69;35.83
12991;BME280;6560;57.692;11.958;2023-04-09T12:29:05;102521.72;;;22.04;36.08
12991;BME280;6560;57.692;11.958;2023-04-09T12:31:31;102558.31;;;22.33;35.93
12991;BME280;6560;57.692;11.958;2023-04-09T12:33:57;102572.44;;;22.45;35.21
12991;BME280;6560;57.692;11.958;2023-04-09T12:36:22;102555.03;;;22.39;35.72
12991;BME280;6560;57.692;11.958;2023-04-09T12:38:49;102501.25;;;22.39;35.90
12991;BME280;6560;57.692;11.958;2023-04-09T12:41:15;102573.75;;;23.00;36.02
12991;BME280;6560;57.692;11.958;2023-04-09T12:43:40;102564.38;;;23.44;35.65
12991;BME280;6560;57.692;11.958;2023-04-09T12:46:08;102469.16;;;22.58;36.08
12991;BME280;6560;57.692;11.958;2023-04-09T12:48:34;102547.34;;;22.93;35.79
12991;BME280;6560;57.692;11.958;2023-04-09T12:50:59;102564.00;;;22.86;36.37
12991;BME280;6560;57.692;11.958;2023-04-09T12:53:25;102554.72;;;22.49;37.41
12991;BME280;6560;57.692;11.958;2023-04-09T12:55:51;102476.41;;;22.10;36.54
12991;BME280;6560;57.692;11.958;2023-04-09T12:58:16;102521.94;;;22.40;37.24
12991;BME280;6560;57.692;11.958;2023-04-09T13:00:43;102530.84;;;22.55;37.08
12991;BME280;6560;57.692;11.958;2023-04-09T13:03:09;102500.72;;;21.97;37.83
12991;BME280;6560;57.692;11.958;2023-04-09T13:05:34;102489.50;;;21.59;38.10
12991;BME280;6560;57.692;11.958;2023-04-09T13:08:00;102432.16;;;21.27;38.41
12991;BME280;6560;57.692;11.958;2023-04-09T13:10:27;102553.16;;;21.61;38.43